createdAt,value
2019-03-01T00:00:58.854Z,60.03
2019-03-01T00:04:06.176Z,60.27
2019-03-01T00:07:45.390Z,60.23
2019-03-01T00:11:16.242Z,60.29
2019-03-01T00:14:27.820Z,60.01
2019-03-01T00:17:42.523Z,59.89
2019-03-01T00:20:54.194Z,59.75
2019-03-01T00:24:31.834Z,59.67
2019-03-01T00:27:58.302Z,59.75
2019-03-01T00:31:22.313Z,59.74
2019-03-01T00:34:45.558Z,59.79
2019-03-01T00:38:09.290Z,59.92
2019-03-01T00:41:32.990Z,59.98
2019-03-01T00:44:40.380Z,60.18
2019-03-01T00:47:42.259Z,60.31
2019-03-01T00:50:44.210Z,60.28
2019-03-01T00:53:46.137Z,60.36
2019-03-01T00:56:48.096Z,60.32
2019-03-01T00:59:50.033Z,60.25
2019-03-01T01:02:52.227Z,60.06
2019-03-01T01:05:54.165Z,59.88
2019-03-01T01:08:56.023Z,60.00
2019-03-01T01:11:57.969Z,59.82
2019-03-01T01:15:01.218Z,59.64
2019-03-01T01:18:03.169Z,59.74
2019-03-01T01:21:05.100Z,59.64
2019-03-01T01:24:07.014Z,59.61
2019-03-01T01:27:08.865Z,59.56
2019-03-01T01:30:12.837Z,59.54
2019-03-01T01:33:14.921Z,59.49
2019-03-01T01:36:17.472Z,59.46
2019-03-01T01:39:19.306Z,59.45
2019-03-01T01:42:21.733Z,59.41
2019-03-01T01:45:23.704Z,59.31
2019-03-01T01:48:25.742Z,59.33
2019-03-01T01:51:27.673Z,59.28
2019-03-01T01:54:29.547Z,59.29
2019-03-01T01:57:31.542Z,59.21
2019-03-01T02:00:33.590Z,59.19
2019-03-01T02:03:35.480Z,59.13
2019-03-01T02:06:37.376Z,59.09
2019-03-01T02:09:39.269Z,58.95
2019-03-01T02:12:41.149Z,58.95
2019-03-01T02:15:43.260Z,59.03
2019-03-01T02:18:45.139Z,58.99
2019-03-01T02:21:47.021Z,59.06
2019-03-01T02:24:48.907Z,59.08
2019-03-01T02:27:50.818Z,58.99
2019-03-01T02:30:59.078Z,58.80
2019-03-01T02:34:01.128Z,58.73
2019-03-01T02:37:03.023Z,58.63
2019-03-01T02:40:10.952Z,58.55
2019-03-01T02:43:12.856Z,58.58
2019-03-01T02:46:14.798Z,58.77
2019-03-01T02:49:16.686Z,58.85
2019-03-01T02:52:18.599Z,58.81
2019-03-01T02:55:20.876Z,58.62
2019-03-01T02:58:22.775Z,58.48
2019-03-01T03:01:24.721Z,58.45
2019-03-01T03:04:26.748Z,58.52
2019-03-01T03:07:30.444Z,58.49
2019-03-01T03:10:32.423Z,58.48
2019-03-01T03:13:34.342Z,58.38
2019-03-01T03:16:36.404Z,58.45
2019-03-01T03:19:38.300Z,58.43
2019-03-01T03:22:40.218Z,58.44
2019-03-01T03:25:42.067Z,58.50
2019-03-01T03:28:44.042Z,58.53
2019-03-01T03:31:45.930Z,58.52
2019-03-01T03:34:48.311Z,58.47
2019-03-01T03:37:50.308Z,58.43
2019-03-01T03:40:52.524Z,58.63
2019-03-01T03:43:54.387Z,58.67
2019-03-01T03:46:56.595Z,58.62
2019-03-01T03:50:00.513Z,58.65
2019-03-01T03:53:02.559Z,58.39
2019-03-01T03:56:04.407Z,58.47
2019-03-01T03:59:06.364Z,58.60
2019-03-01T04:02:08.295Z,59.02
2019-03-01T04:05:10.445Z,59.30
2019-03-01T04:08:12.467Z,59.15
2019-03-01T04:11:14.420Z,59.00
2019-03-01T04:14:16.326Z,58.96
2019-03-01T04:17:18.444Z,59.03
2019-03-01T04:20:20.327Z,59.13
2019-03-01T04:23:22.212Z,59.09
2019-03-01T04:26:24.125Z,59.00
2019-03-01T04:29:26.088Z,58.81
2019-03-01T04:32:28.074Z,58.79
2019-03-01T04:35:30.116Z,58.99
2019-03-01T04:38:32.098Z,59.17
2019-03-01T04:41:34.016Z,59.54
2019-03-01T04:44:36.425Z,59.52
2019-03-01T04:47:38.416Z,59.30
2019-03-01T04:50:40.421Z,58.97
2019-03-01T04:53:42.317Z,58.78
2019-03-01T04:56:44.276Z,58.96
2019-03-01T04:59:46.151Z,59.07
2019-03-01T05:02:48.100Z,59.33
2019-03-01T05:05:50.015Z,59.34
2019-03-01T05:08:52.498Z,59.29
2019-03-01T05:11:54.387Z,59.23
2019-03-01T05:14:56.378Z,59.29
2019-03-01T05:17:58.310Z,59.23
2019-03-01T05:21:00.244Z,59.17
2019-03-01T05:24:02.153Z,59.15
2019-03-01T05:27:04.165Z,59.06
2019-03-01T05:30:09.704Z,58.84
2019-03-01T05:33:11.629Z,58.62
2019-03-01T05:36:13.656Z,58.57
2019-03-01T05:39:15.526Z,58.65
2019-03-01T05:42:17.460Z,58.84
2019-03-01T05:45:27.111Z,59.01
2019-03-01T05:48:29.096Z,59.10
2019-03-01T05:51:31.066Z,59.06
2019-03-01T05:54:33.003Z,58.97
2019-03-01T05:57:35.018Z,59.22
2019-03-01T06:00:36.901Z,59.70
2019-03-01T06:03:54.613Z,60.08
2019-03-01T06:07:19.619Z,61.03
2019-03-01T06:10:31.173Z,61.12
2019-03-01T06:13:45.720Z,61.38
2019-03-01T06:17:06.411Z,61.52
2019-03-01T06:20:12.016Z,61.38
2019-03-01T06:23:17.564Z,61.23
2019-03-01T06:26:40.728Z,61.09
2019-03-01T06:29:55.159Z,61.19
2019-03-01T06:33:30.039Z,61.31
2019-03-01T06:36:47.204Z,61.18
2019-03-01T06:40:22.020Z,60.88
2019-03-01T06:43:54.482Z,60.74
2019-03-01T06:47:05.975Z,60.42
2019-03-01T06:50:09.884Z,59.98
2019-03-01T06:53:11.843Z,59.95
2019-03-01T06:56:14.836Z,60.11
2019-03-01T06:59:16.986Z,60.35
2019-03-01T07:02:23.523Z,60.39
2019-03-01T07:05:25.407Z,60.00
2019-03-01T07:08:27.512Z,59.57
2019-03-01T07:11:29.459Z,59.09
2019-03-01T07:14:31.385Z,59.09
2019-03-01T07:17:34.659Z,59.09
2019-03-01T07:20:36.594Z,59.16
2019-03-01T07:23:38.569Z,58.91
2019-03-01T07:26:40.559Z,58.39
2019-03-01T07:29:42.559Z,58.40
2019-03-01T07:32:44.498Z,58.19
2019-03-01T07:35:47.415Z,58.35
2019-03-01T07:38:49.511Z,58.12
2019-03-01T07:41:51.421Z,58.04
2019-03-01T07:44:54.797Z,57.75
2019-03-01T07:47:56.703Z,57.47
2019-03-01T07:50:59.746Z,57.38
2019-03-01T07:54:01.848Z,57.11
2019-03-01T07:57:03.734Z,56.99
2019-03-01T08:00:14.217Z,56.83
2019-03-01T08:03:16.119Z,56.84
2019-03-01T08:06:18.034Z,56.55
2019-03-01T08:09:20.033Z,56.52
2019-03-01T08:12:22.036Z,56.54
2019-03-01T08:15:24.007Z,56.52
2019-03-01T08:18:25.945Z,56.56
2019-03-01T08:21:27.948Z,56.67
2019-03-01T08:24:29.963Z,56.60
2019-03-01T08:27:31.856Z,56.64
2019-03-01T08:30:33.727Z,56.38
2019-03-01T08:33:35.684Z,56.09
2019-03-01T08:36:38.600Z,55.89
2019-03-01T08:39:41.656Z,55.87
2019-03-01T08:42:43.613Z,55.90
2019-03-01T08:45:46.698Z,55.80
2019-03-01T08:48:48.680Z,55.90
2019-03-01T08:51:50.751Z,56.14
2019-03-01T08:54:52.718Z,56.22
2019-03-01T08:57:54.718Z,56.25
2019-03-01T09:00:59.939Z,56.20
2019-03-01T09:04:09.124Z,56.16
2019-03-01T09:07:11.019Z,56.23
2019-03-01T09:10:15.485Z,56.16
2019-03-01T09:13:17.373Z,55.88
2019-03-01T09:16:19.351Z,55.68
2019-03-01T09:19:22.273Z,55.61
2019-03-01T09:22:28.068Z,55.61
2019-03-01T09:25:28.993Z,55.78
2019-03-01T09:28:32.777Z,55.90
2019-03-01T09:31:35.038Z,56.11
2019-03-01T09:34:36.984Z,56.17
2019-03-01T09:37:38.907Z,55.92
2019-03-01T09:40:40.998Z,55.92
2019-03-01T09:43:42.892Z,56.15
2019-03-01T09:46:44.831Z,56.21
2019-03-01T09:49:46.717Z,56.36
2019-03-01T09:52:48.645Z,56.28
2019-03-01T09:55:50.752Z,56.19
2019-03-01T09:58:52.855Z,56.02
2019-03-01T10:01:54.772Z,56.42
2019-03-01T10:04:56.654Z,56.41
2019-03-01T10:07:58.635Z,56.74
2019-03-01T10:11:01.529Z,56.97
2019-03-01T10:14:03.514Z,57.10
2019-03-01T10:17:06.206Z,56.89
2019-03-01T10:20:12.832Z,56.93
2019-03-01T10:23:14.815Z,56.84
2019-03-01T10:26:16.883Z,56.61
2019-03-01T10:29:18.823Z,56.63
2019-03-01T10:32:20.735Z,56.58
2019-03-01T10:35:22.688Z,56.84
2019-03-01T10:38:24.582Z,56.83
2019-03-01T10:41:26.602Z,57.13
2019-03-01T10:44:28.575Z,57.18
2019-03-01T10:47:30.615Z,57.45
2019-03-01T10:50:32.543Z,57.48
2019-03-01T10:53:34.525Z,57.64
2019-03-01T10:56:36.561Z,58.03
2019-03-01T10:59:38.464Z,58.16
2019-03-01T11:02:40.385Z,58.31
2019-03-01T11:05:42.372Z,58.76
2019-03-01T11:08:44.389Z,58.76
2019-03-01T11:11:46.525Z,58.66
2019-03-01T11:14:48.511Z,58.68
2019-03-01T11:17:50.569Z,58.91
2019-03-01T11:20:52.506Z,59.22
2019-03-01T11:23:54.636Z,59.49
2019-03-01T11:26:56.642Z,59.66
2019-03-01T11:29:58.541Z,59.58
2019-03-01T11:33:00.460Z,60.02
2019-03-01T11:36:02.568Z,60.44
2019-03-01T11:39:05.048Z,60.87
2019-03-01T11:42:08.669Z,60.49
2019-03-01T11:45:11.538Z,61.03
2019-03-01T11:48:13.496Z,60.99
2019-03-01T11:51:15.417Z,60.96
2019-03-01T11:54:17.486Z,61.28
2019-03-01T11:57:19.471Z,61.43
2019-03-01T12:00:25.292Z,61.59
2019-03-01T12:03:27.271Z,61.75
2019-03-01T12:06:29.214Z,61.84
2019-03-01T12:09:31.258Z,62.03
2019-03-01T12:12:33.422Z,62.00
2019-03-01T12:15:35.437Z,61.96
2019-03-01T12:18:37.391Z,62.26
2019-03-01T12:21:40.533Z,62.27
2019-03-01T12:24:42.588Z,62.18
2019-03-01T12:27:44.648Z,62.91
2019-03-01T12:30:46.595Z,62.61
2019-03-01T12:33:48.478Z,62.63
2019-03-01T12:36:50.460Z,62.58
2019-03-01T12:39:52.407Z,63.01
2019-03-01T12:42:54.432Z,62.85
2019-03-01T12:45:56.418Z,62.76
2019-03-01T12:48:58.331Z,62.60
2019-03-01T12:52:00.437Z,62.45
2019-03-01T12:55:04.116Z,62.29
2019-03-01T12:58:06.134Z,62.17
2019-03-01T13:01:08.236Z,62.08
2019-03-01T13:04:10.192Z,61.90
2019-03-01T13:07:13.208Z,61.75
2019-03-01T13:10:28.178Z,61.79
2019-03-01T13:13:30.104Z,61.78
2019-03-01T13:16:32.040Z,61.87
2019-03-01T13:19:34.058Z,62.09
2019-03-01T13:22:35.935Z,62.01
2019-03-01T13:25:37.849Z,61.99
2019-03-01T13:28:39.871Z,62.01
2019-03-01T13:31:43.946Z,61.77
2019-03-01T13:34:49.480Z,61.74
2019-03-01T13:37:52.112Z,61.85
2019-03-01T13:40:54.258Z,61.80
2019-03-01T13:43:56.549Z,61.82
2019-03-01T13:46:58.493Z,62.19
2019-03-01T13:50:05.625Z,62.43
2019-03-01T13:53:06.549Z,62.43
2019-03-01T13:56:10.739Z,62.74
2019-03-01T13:59:13.067Z,62.88
2019-03-01T14:02:14.997Z,63.13
2019-03-01T14:05:17.542Z,63.10
2019-03-01T14:08:19.416Z,63.18
2019-03-01T14:11:23.437Z,63.19
2019-03-01T14:14:27.133Z,62.93
2019-03-01T14:17:29.965Z,62.50
2019-03-01T14:20:31.867Z,62.51
2019-03-01T14:23:33.797Z,62.39
2019-03-01T14:26:37.181Z,62.35
2019-03-01T14:29:39.237Z,61.93
2019-03-01T14:32:41.306Z,61.70
2019-03-01T14:35:43.251Z,61.65
2019-03-01T14:38:45.624Z,61.67
2019-03-01T14:41:47.712Z,61.70
2019-03-01T14:44:49.823Z,61.42
2019-03-01T14:47:51.947Z,61.68
2019-03-01T14:50:53.903Z,61.81
2019-03-01T14:53:55.820Z,61.61
2019-03-01T14:57:00.468Z,61.53
2019-03-01T15:00:14.187Z,61.71
2019-03-01T15:03:32.822Z,61.53
2019-03-01T15:06:38.421Z,61.45
2019-03-01T15:09:42.037Z,61.41
2019-03-01T15:12:44.384Z,61.45
2019-03-01T15:15:48.353Z,61.50
2019-03-01T15:18:52.100Z,61.76
2019-03-01T15:21:54.212Z,61.90
2019-03-01T15:24:56.474Z,61.99
2019-03-01T15:27:59.785Z,62.04
2019-03-01T15:31:04.066Z,62.13
2019-03-01T15:34:06.060Z,62.25
2019-03-01T15:37:08.428Z,62.44
2019-03-01T15:40:11.119Z,62.53
2019-03-01T15:43:14.247Z,62.61
2019-03-01T15:46:17.951Z,62.53
2019-03-01T15:49:24.205Z,62.70
2019-03-01T15:52:27.002Z,62.62
2019-03-01T15:55:29.715Z,62.86
2019-03-01T15:58:33.021Z,62.94
2019-03-01T16:01:36.561Z,62.92
2019-03-01T16:04:38.475Z,63.06
2019-03-01T16:07:42.118Z,63.14
2019-03-01T16:10:44.012Z,63.04
2019-03-01T16:13:49.113Z,63.25
2019-03-01T16:16:51.467Z,63.16
2019-03-01T16:19:57.237Z,63.18
2019-03-01T16:22:59.322Z,63.17
2019-03-01T16:26:01.274Z,63.20
2019-03-01T16:29:03.935Z,63.10
2019-03-01T16:32:11.590Z,63.01
2019-03-01T16:35:19.786Z,63.10
2019-03-01T16:38:21.797Z,63.24
2019-03-01T16:41:23.836Z,63.38
2019-03-01T16:44:25.938Z,63.49
2019-03-01T16:47:28.997Z,63.78
2019-03-01T16:50:33.133Z,63.77
2019-03-01T16:53:36.594Z,63.71
2019-03-01T16:56:39.429Z,63.61
2019-03-01T16:59:43.733Z,63.59
2019-03-01T17:02:50.398Z,63.84
2019-03-01T17:05:55.173Z,64.06
2019-03-01T17:08:57.396Z,64.22
2019-03-01T17:12:00.199Z,64.32
2019-03-01T17:15:03.158Z,64.73
2019-03-01T17:18:11.240Z,64.80
2019-03-01T17:21:12.486Z,64.99
2019-03-01T17:24:15.566Z,65.09
2019-03-01T17:27:20.395Z,64.89
2019-03-01T17:30:23.706Z,64.65
2019-03-01T17:33:25.972Z,64.48
2019-03-01T17:36:31.099Z,64.47
2019-03-01T17:39:33.123Z,64.57
2019-03-01T17:42:35.216Z,64.79
2019-03-01T17:45:39.165Z,64.71
2019-03-01T17:48:41.189Z,64.43
2019-03-01T17:51:43.109Z,64.56
2019-03-01T17:54:45.117Z,64.54
2019-03-01T17:57:50.170Z,64.73
2019-03-01T18:00:53.026Z,64.92
2019-03-01T18:03:58.098Z,65.06
2019-03-01T18:07:00.960Z,65.16
2019-03-01T18:10:10.186Z,65.37
2019-03-01T18:13:12.115Z,65.09
2019-03-01T18:16:14.365Z,64.93
2019-03-01T18:19:16.324Z,64.69
2019-03-01T18:22:23.062Z,64.75
2019-03-01T18:25:26.393Z,64.87
2019-03-01T18:28:29.783Z,64.81
2019-03-01T18:31:34.790Z,64.91
2019-03-01T18:34:37.991Z,64.83
2019-03-01T18:37:40.259Z,64.87
2019-03-01T18:40:43.792Z,64.77
2019-03-01T18:43:49.431Z,64.70
2019-03-01T18:46:55.437Z,64.60
2019-03-01T18:49:56.207Z,64.63
2019-03-01T18:52:58.827Z,64.65
2019-03-01T18:56:02.624Z,64.73
2019-03-01T18:59:06.458Z,64.58
2019-03-01T19:02:09.777Z,64.73
2019-03-01T19:05:12.097Z,64.68
2019-03-01T19:08:14.126Z,64.89
2019-03-01T19:11:16.671Z,64.97
2019-03-01T19:14:21.146Z,65.05
2019-03-01T19:17:23.347Z,65.11
2019-03-01T19:20:44.048Z,65.18
2019-03-01T19:23:47.801Z,65.26
2019-03-01T19:26:49.793Z,65.23
2019-03-01T19:29:51.934Z,65.24
2019-03-01T19:32:58.870Z,65.24
2019-03-01T19:36:03.527Z,65.23
2019-03-01T19:39:09.345Z,65.23
2019-03-01T19:42:13.520Z,65.27
2019-03-01T19:45:20.968Z,65.35
2019-03-01T19:48:23.202Z,65.37
2019-03-01T19:51:27.961Z,65.30
2019-03-01T19:54:32.314Z,64.77
2019-03-01T19:57:36.388Z,64.51
2019-03-01T20:00:42.634Z,63.52
2019-03-01T20:03:45.417Z,63.34
2019-03-01T20:06:49.500Z,62.94
2019-03-01T20:09:51.434Z,62.82
2019-03-01T20:12:56.394Z,63.21
2019-03-01T20:16:00.837Z,62.77
2019-03-01T20:19:02.988Z,62.79
2019-03-01T20:22:10.393Z,62.85
2019-03-01T20:25:16.192Z,62.82
2019-03-01T20:28:18.316Z,62.93
2019-03-01T20:31:22.399Z,63.16
2019-03-01T20:34:27.962Z,63.12
2019-03-01T20:37:30.012Z,63.09
2019-03-01T20:40:31.990Z,63.10
2019-03-01T20:43:37.867Z,63.10
2019-03-01T20:46:43.921Z,63.25
2019-03-01T20:49:46.093Z,63.35
2019-03-01T20:52:48.102Z,63.40
2019-03-01T20:55:51.063Z,63.44
2019-03-01T20:58:54.701Z,63.42
2019-03-01T21:01:59.452Z,63.51
2019-03-01T21:05:02.826Z,63.59
2019-03-01T21:08:08.946Z,63.62
2019-03-01T21:11:11.560Z,63.70
2019-03-01T21:14:13.618Z,63.76
2019-03-01T21:17:16.844Z,63.82
2019-03-01T21:20:21.031Z,63.90
2019-03-01T21:23:23.333Z,63.93
2019-03-01T21:26:26.973Z,64.09
2019-03-01T21:29:29.361Z,64.31
2019-03-01T21:32:31.380Z,64.42
2019-03-01T21:35:33.354Z,64.48
2019-03-01T21:38:35.409Z,64.65
2019-03-01T21:41:37.332Z,64.70
2019-03-01T21:44:39.332Z,64.67
2019-03-01T21:47:41.260Z,64.51
2019-03-01T21:50:43.568Z,64.32
2019-03-01T21:53:45.686Z,64.55
2019-03-01T21:56:55.676Z,64.57
2019-03-01T21:59:52.546Z,64.53
2019-03-01T22:02:54.747Z,64.74
2019-03-01T22:05:56.798Z,64.89
2019-03-01T22:08:58.715Z,64.88
2019-03-01T22:12:00.665Z,64.87
2019-03-01T22:15:11.271Z,64.80
2019-03-01T22:18:24.851Z,64.88
2019-03-01T22:21:32.061Z,65.02
2019-03-01T22:24:34.266Z,64.99
2019-03-01T22:27:36.350Z,65.18
2019-03-01T22:30:39.427Z,65.33
2019-03-01T22:33:41.429Z,65.47
2019-03-01T22:36:43.394Z,65.42
2019-03-01T22:39:48.450Z,65.48
2019-03-01T22:42:49.923Z,65.74
2019-03-01T22:45:53.104Z,66.21
2019-03-01T22:48:56.698Z,66.34
2019-03-01T22:51:58.957Z,66.36
2019-03-01T22:55:01.621Z,66.75
2019-03-01T22:58:05.610Z,66.71
2019-03-01T23:01:09.685Z,66.84
2019-03-01T23:04:12.101Z,66.84
2019-03-01T23:07:15.818Z,66.91
2019-03-01T23:10:18.492Z,67.12
2019-03-01T23:13:21.884Z,67.14
2019-03-01T23:16:24.074Z,67.38
2019-03-01T23:19:25.968Z,67.28
2019-03-01T23:22:27.914Z,67.38
2019-03-01T23:25:29.818Z,67.61
2019-03-01T23:28:31.806Z,67.82
2019-03-01T23:31:35.699Z,68.10
2019-03-01T23:34:38.993Z,68.26
2019-03-01T23:37:41.504Z,68.31
2019-03-01T23:40:43.435Z,67.96
2019-03-01T23:43:45.380Z,68.16
2019-03-01T23:46:47.302Z,68.22
2019-03-01T23:49:49.263Z,68.34
2019-03-01T23:52:51.225Z,68.14
2019-03-01T23:55:54.730Z,68.08
2019-03-01T23:58:57.061Z,68.37
